createdAt,value
2023-04-27T00:01:29.837Z,8.80
2023-04-27T00:03:57.851Z,9.20
2023-04-27T00:06:27.497Z,8.80
2023-04-27T00:08:55.371Z,8.30
2023-04-27T00:11:23.106Z,9.70
2023-04-27T00:13:50.963Z,8.80
2023-04-27T00:16:18.753Z,8.90
2023-04-27T00:18:47.012Z,8.50
2023-04-27T00:21:14.826Z,9.70
2023-04-27T00:23:42.612Z,9.50
2023-04-27T00:26:10.384Z,9.00
2023-04-27T00:28:38.386Z,8.40
2023-04-27T00:31:06.576Z,8.60
2023-04-27T00:33:34.453Z,9.00
2023-04-27T00:36:02.621Z,8.40
2023-04-27T00:38:30.497Z,9.10
2023-04-27T00:41:04.623Z,8.90
2023-04-27T00:43:33.095Z,8.30
2023-04-27T00:46:01.487Z,8.90
2023-04-27T00:48:29.307Z,9.40
2023-04-27T00:50:57.189Z,9.00
2023-04-27T00:53:25.368Z,8.90
2023-04-27T00:55:53.176Z,9.30
2023-04-27T00:58:21.007Z,9.10
2023-04-27T01:00:48.830Z,7.70
2023-04-27T01:03:17.124Z,8.70
2023-04-27T01:05:45.672Z,8.80
2023-04-27T01:08:22.545Z,9.10
2023-04-27T01:10:50.807Z,7.90
2023-04-27T01:13:19.091Z,8.10
2023-04-27T01:15:46.906Z,8.70
2023-04-27T01:18:14.772Z,7.70
2023-04-27T01:20:45.500Z,8.80
2023-04-27T01:23:17.504Z,9.20
2023-04-27T01:25:45.567Z,8.90
2023-04-27T01:28:13.390Z,9.40
2023-04-27T01:30:41.269Z,9.10
2023-04-27T01:33:09.124Z,10.00
2023-04-27T01:35:37.158Z,8.90
2023-04-27T01:38:07.252Z,8.70
2023-04-27T01:40:35.024Z,9.00
2023-04-27T01:43:02.798Z,8.80
2023-04-27T01:45:30.607Z,8.80
2023-04-27T01:47:58.368Z,10.50
2023-04-27T01:50:26.126Z,8.90
2023-04-27T01:52:53.876Z,7.90
2023-04-27T01:55:24.119Z,8.10
2023-04-27T01:57:51.904Z,9.10
2023-04-27T02:00:19.904Z,8.50
2023-04-27T02:02:47.981Z,7.40
2023-04-27T02:05:16.272Z,8.20
2023-04-27T02:07:44.078Z,8.20
2023-04-27T02:10:11.885Z,7.90
2023-04-27T02:12:39.643Z,7.90
2023-04-27T02:15:07.838Z,8.60
2023-04-27T02:17:35.774Z,8.00
2023-04-27T02:20:05.418Z,8.10
2023-04-27T02:22:35.832Z,8.20
2023-04-27T02:25:03.651Z,8.60
2023-04-27T02:27:31.403Z,7.70
2023-04-27T02:29:59.512Z,7.80
2023-04-27T02:32:27.829Z,8.20
2023-04-27T02:34:56.850Z,8.30
2023-04-27T02:37:24.623Z,8.20
2023-04-27T02:39:55.891Z,7.80
2023-04-27T02:42:26.501Z,7.50
2023-04-27T02:44:54.465Z,6.70
2023-04-27T02:47:22.348Z,7.50
2023-04-27T02:49:50.411Z,8.10
2023-04-27T02:52:18.106Z,7.60
2023-04-27T02:54:55.042Z,8.50
2023-04-27T02:57:22.961Z,8.20
2023-04-27T02:59:53.694Z,7.90
2023-04-27T03:02:21.610Z,7.80
2023-04-27T03:04:54.105Z,7.50
2023-04-27T03:07:22.277Z,7.80
2023-04-27T03:09:50.297Z,8.30
2023-04-27T03:12:18.195Z,8.20
2023-04-27T03:14:45.937Z,6.80
2023-04-27T03:17:28.522Z,7.70
2023-04-27T03:19:56.384Z,7.40
2023-04-27T03:22:24.130Z,7.80
2023-04-27T03:24:51.829Z,7.40
2023-04-27T03:27:19.565Z,8.10
2023-04-27T03:29:47.600Z,7.80
2023-04-27T03:32:15.582Z,8.60
2023-04-27T03:34:43.518Z,8.90
2023-04-27T03:37:11.270Z,7.40
2023-04-27T03:39:39.085Z,8.00
2023-04-27T03:42:06.870Z,6.90
2023-04-27T03:44:36.415Z,7.50
2023-04-27T03:47:13.622Z,7.20
2023-04-27T03:49:41.495Z,7.50
2023-04-27T03:52:09.220Z,8.90
2023-04-27T03:54:37.314Z,7.30
2023-04-27T03:57:05.231Z,7.00
2023-04-27T03:59:32.994Z,6.70
2023-04-27T04:02:01.536Z,7.60
2023-04-27T04:04:30.200Z,7.40
2023-04-27T04:06:58.077Z,8.80
2023-04-27T04:09:25.850Z,7.20
2023-04-27T04:11:53.641Z,7.70
2023-04-27T04:14:21.411Z,7.90
2023-04-27T04:16:49.149Z,6.90
2023-04-27T04:19:22.000Z,6.20
2023-04-27T04:21:49.964Z,6.90
2023-04-27T04:24:17.828Z,6.60
2023-04-27T04:26:45.967Z,7.00
2023-04-27T04:29:14.054Z,6.70
2023-04-27T04:31:42.324Z,7.30
2023-04-27T04:34:10.288Z,7.00
2023-04-27T04:36:38.166Z,6.50
2023-04-27T04:39:07.120Z,6.80
2023-04-27T04:41:35.062Z,7.30
2023-04-27T04:44:03.165Z,7.20
2023-04-27T04:46:31.120Z,6.40
2023-04-27T04:48:59.034Z,6.50
2023-04-27T04:51:26.754Z,6.40
2023-04-27T04:53:54.554Z,7.30
2023-04-27T04:56:22.322Z,6.50
2023-04-27T04:58:50.405Z,7.70
2023-04-27T05:01:18.596Z,6.70
2023-04-27T05:03:46.627Z,7.20
2023-04-27T05:06:14.591Z,6.00
2023-04-27T05:08:42.532Z,7.30
2023-04-27T05:11:13.003Z,7.20
2023-04-27T05:13:40.747Z,7.00
2023-04-27T05:16:08.693Z,6.70
2023-04-27T05:18:36.524Z,6.90
2023-04-27T05:21:04.286Z,6.50
2023-04-27T05:23:39.412Z,6.60
2023-04-27T05:26:14.414Z,6.60
2023-04-27T05:28:42.331Z,7.00
2023-04-27T05:31:10.632Z,6.60
2023-04-27T05:33:38.374Z,7.10
2023-04-27T05:36:06.522Z,6.20
2023-04-27T05:38:36.104Z,7.00
2023-04-27T05:41:12.737Z,6.40
2023-04-27T05:43:40.548Z,6.00
2023-04-27T05:46:08.735Z,5.90
2023-04-27T05:48:36.593Z,6.20
2023-04-27T05:51:04.539Z,7.00
2023-04-27T05:53:33.024Z,5.60
2023-04-27T05:56:01.323Z,6.00
2023-04-27T05:58:29.482Z,6.20
2023-04-27T06:00:57.657Z,5.70
2023-04-27T06:03:25.973Z,5.50
2023-04-27T06:05:58.868Z,5.80
2023-04-27T06:08:37.402Z,5.00
2023-04-27T06:11:08.385Z,5.20
2023-04-27T06:13:36.076Z,6.10
2023-04-27T06:16:03.940Z,5.60
2023-04-27T06:18:31.708Z,5.90
2023-04-27T06:21:02.596Z,5.00
2023-04-27T06:23:30.561Z,5.30
2023-04-27T06:25:58.999Z,5.30
2023-04-27T06:28:26.898Z,5.20
2023-04-27T06:30:55.032Z,5.10
2023-04-27T06:33:22.852Z,5.10
2023-04-27T06:35:50.925Z,4.80
2023-04-27T06:38:18.826Z,5.20
2023-04-27T06:40:50.269Z,5.10
2023-04-27T06:43:18.103Z,4.50
2023-04-27T06:45:46.237Z,4.50
2023-04-27T06:48:14.122Z,3.90
2023-04-27T06:50:42.040Z,4.60
2023-04-27T06:53:10.373Z,4.00
2023-04-27T06:55:38.360Z,4.00
2023-04-27T06:58:06.144Z,4.20
2023-04-27T07:00:33.997Z,3.40
2023-04-27T07:03:02.672Z,3.40
2023-04-27T07:05:33.108Z,3.20
2023-04-27T07:08:04.050Z,3.70
2023-04-27T07:10:33.984Z,3.70
2023-04-27T07:13:01.987Z,3.20
2023-04-27T07:15:30.843Z,2.90
2023-04-27T07:17:58.712Z,3.20
2023-04-27T07:20:26.968Z,2.90
2023-04-27T07:22:58.044Z,2.40
2023-04-27T07:25:26.658Z,3.70
2023-04-27T07:27:55.106Z,2.70
2023-04-27T07:30:23.812Z,2.40
2023-04-27T07:32:54.815Z,2.60
2023-04-27T07:35:25.891Z,2.90
2023-04-27T07:37:53.667Z,2.70
2023-04-27T07:40:24.886Z,3.20
2023-04-27T07:42:52.816Z,2.20
2023-04-27T07:45:21.667Z,2.30
2023-04-27T07:47:49.402Z,1.90
2023-04-27T07:50:18.149Z,2.20
2023-04-27T07:52:46.133Z,3.00
2023-04-27T07:55:13.930Z,2.00
2023-04-27T07:57:41.652Z,2.50
2023-04-27T08:00:11.253Z,2.00
2023-04-27T08:02:39.182Z,2.40
2023-04-27T08:05:07.760Z,2.70
2023-04-27T08:07:41.227Z,2.80
2023-04-27T08:10:12.178Z,2.80
2023-04-27T08:12:40.067Z,2.30
2023-04-27T08:15:08.347Z,2.60
2023-04-27T08:17:37.251Z,2.40
2023-04-27T08:20:06.931Z,2.30
2023-04-27T08:22:34.878Z,1.60
2023-04-27T08:25:04.190Z,2.40
2023-04-27T08:27:32.201Z,2.40
2023-04-27T08:30:01.059Z,1.80
2023-04-27T08:32:28.974Z,1.90
2023-04-27T08:34:56.948Z,2.00
2023-04-27T08:37:24.767Z,1.90
2023-04-27T08:39:52.557Z,1.70
2023-04-27T08:42:20.506Z,1.90
2023-04-27T08:44:48.418Z,1.70
2023-04-27T08:47:16.225Z,1.50
2023-04-27T08:49:44.137Z,1.70
2023-04-27T08:52:13.770Z,1.80
2023-04-27T08:54:41.935Z,1.90
2023-04-27T08:57:13.000Z,1.80
2023-04-27T08:59:41.018Z,2.20
2023-04-27T09:02:18.751Z,2.30
2023-04-27T09:04:56.848Z,1.70
2023-04-27T09:07:26.219Z,1.70
2023-04-27T09:10:05.486Z,1.70
2023-04-27T09:12:41.011Z,2.10
2023-04-27T09:15:11.950Z,1.70
2023-04-27T09:17:39.773Z,2.10
2023-04-27T09:20:09.172Z,1.50
2023-04-27T09:22:47.344Z,2.00
2023-04-27T09:25:27.754Z,1.40
2023-04-27T09:27:56.158Z,2.10
2023-04-27T09:30:24.593Z,2.00
2023-04-27T09:32:56.989Z,1.50
2023-04-27T09:35:32.676Z,1.90
2023-04-27T09:38:01.262Z,1.80
2023-04-27T09:40:29.867Z,1.80
2023-04-27T09:43:01.861Z,1.50
2023-04-27T09:45:30.125Z,1.40
2023-04-27T09:47:58.757Z,1.40
2023-04-27T09:50:26.774Z,1.90
2023-04-27T09:52:54.553Z,1.60
2023-04-27T09:55:28.780Z,1.50
2023-04-27T09:58:15.436Z,1.20
2023-04-27T10:00:59.150Z,1.60
2023-04-27T10:03:27.105Z,1.40
2023-04-27T10:06:04.394Z,1.30
2023-04-27T10:08:33.728Z,1.40
2023-04-27T10:11:01.487Z,1.70
2023-04-27T10:13:31.516Z,1.40
2023-04-27T10:16:14.744Z,1.40
2023-04-27T10:18:50.714Z,1.40
2023-04-27T10:21:18.535Z,1.30
2023-04-27T10:23:48.418Z,1.90
2023-04-27T10:26:26.598Z,1.50
2023-04-27T10:28:58.909Z,1.60
2023-04-27T10:31:30.000Z,1.60
2023-04-27T10:34:08.701Z,1.20
2023-04-27T10:36:37.886Z,1.30
2023-04-27T10:39:36.205Z,1.10
2023-04-27T10:42:11.864Z,1.30
2023-04-27T10:44:39.633Z,1.10
2023-04-27T10:47:30.423Z,1.40
2023-04-27T10:50:08.259Z,1.20
2023-04-27T10:52:36.185Z,1.50
2023-04-27T10:55:17.014Z,1.40
2023-04-27T10:57:51.295Z,1.50
2023-04-27T11:00:25.759Z,1.40
2023-04-27T11:02:54.164Z,1.60
2023-04-27T11:05:28.781Z,1.60
2023-04-27T11:08:09.989Z,1.30
2023-04-27T11:10:42.904Z,1.30
2023-04-27T11:13:12.342Z,1.70
2023-04-27T11:15:50.542Z,1.70
2023-04-27T11:18:21.310Z,1.50
2023-04-27T11:20:50.593Z,1.50
2023-04-27T11:23:30.626Z,1.50
2023-04-27T11:25:58.764Z,1.80
2023-04-27T11:28:26.853Z,1.70
2023-04-27T11:30:58.367Z,1.50
2023-04-27T11:33:27.174Z,1.60
2023-04-27T11:35:55.144Z,1.70
2023-04-27T11:38:23.105Z,1.30
2023-04-27T11:41:08.994Z,1.30
2023-04-27T11:43:37.894Z,1.20
2023-04-27T11:46:10.967Z,1.10
2023-04-27T11:48:39.447Z,1.50
2023-04-27T11:51:09.638Z,1.40
2023-04-27T11:53:40.635Z,1.70
2023-04-27T11:56:10.630Z,1.40
2023-04-27T11:58:39.820Z,1.70
2023-04-27T12:01:10.382Z,1.90
2023-04-27T12:03:38.609Z,1.50
2023-04-27T12:06:27.702Z,1.30
2023-04-27T12:08:58.775Z,2.20
2023-04-27T12:11:27.947Z,1.50
2023-04-27T12:13:56.932Z,1.50
2023-04-27T12:16:24.860Z,1.40
2023-04-27T12:18:52.918Z,1.20
2023-04-27T12:21:23.820Z,1.80
2023-04-27T12:23:51.726Z,2.00
2023-04-27T12:26:20.619Z,1.90
2023-04-27T12:28:51.662Z,1.70
2023-04-27T12:31:26.875Z,1.20
2023-04-27T12:33:55.461Z,1.10
2023-04-27T12:36:23.234Z,1.60
2023-04-27T12:38:51.808Z,1.40
2023-04-27T12:41:23.467Z,1.40
2023-04-27T12:43:51.373Z,2.00
2023-04-27T12:46:19.158Z,1.50
2023-04-27T12:49:06.497Z,1.60
2023-04-27T12:51:34.655Z,1.60
2023-04-27T12:54:06.670Z,1.10
2023-04-27T12:56:34.620Z,1.30
2023-04-27T12:59:02.712Z,1.50
2023-04-27T13:01:33.323Z,1.40
2023-04-27T13:04:02.073Z,1.30
2023-04-27T13:06:38.806Z,1.30
2023-04-27T13:09:06.975Z,1.40
2023-04-27T13:11:34.755Z,1.50
2023-04-27T13:14:02.586Z,1.40
2023-04-27T13:16:30.590Z,1.40
2023-04-27T13:18:58.530Z,1.40
2023-04-27T13:21:27.045Z,1.20
2023-04-27T13:23:58.238Z,1.30
2023-04-27T13:26:27.963Z,1.20
2023-04-27T13:28:55.752Z,1.60
2023-04-27T13:31:23.723Z,1.60
2023-04-27T13:33:51.621Z,1.30
2023-04-27T13:36:19.468Z,1.40
2023-04-27T13:38:47.308Z,1.20
2023-04-27T13:41:15.285Z,1.40
2023-04-27T13:43:43.686Z,1.20
2023-04-27T13:46:11.665Z,1.90
2023-04-27T13:48:39.387Z,1.80
2023-04-27T13:51:07.465Z,1.60
2023-04-27T13:53:38.105Z,1.20
2023-04-27T13:56:06.127Z,1.40
2023-04-27T13:58:34.131Z,1.50
2023-04-27T14:01:02.774Z,1.50
2023-04-27T14:03:30.870Z,1.70
2023-04-27T14:05:58.748Z,1.30
2023-04-27T14:08:26.809Z,1.40
2023-04-27T14:10:55.215Z,1.60
2023-04-27T14:13:22.886Z,1.50
2023-04-27T14:15:50.847Z,1.60
2023-04-27T14:18:18.668Z,1.50
2023-04-27T14:20:46.565Z,1.70
2023-04-27T14:23:14.346Z,2.00
2023-04-27T14:25:42.194Z,1.70
2023-04-27T14:28:12.176Z,1.60
2023-04-27T14:30:40.166Z,1.70
2023-04-27T14:33:07.970Z,2.00
2023-04-27T14:35:38.210Z,1.40
2023-04-27T14:38:06.365Z,2.30
2023-04-27T14:40:34.206Z,2.10
2023-04-27T14:43:04.831Z,2.10
2023-04-27T14:45:43.584Z,2.10
2023-04-27T14:48:18.214Z,1.90
2023-04-27T14:50:48.587Z,1.80
2023-04-27T14:53:16.636Z,1.80
2023-04-27T14:55:45.947Z,2.00
2023-04-27T14:58:18.478Z,2.00
2023-04-27T15:00:46.226Z,3.10
2023-04-27T15:03:14.051Z,1.90
2023-04-27T15:05:41.936Z,2.10
2023-04-27T15:08:09.913Z,1.70
2023-04-27T15:10:37.960Z,2.00
2023-04-27T15:13:05.804Z,1.50
2023-04-27T15:15:36.008Z,1.80
2023-04-27T15:18:04.416Z,1.90
2023-04-27T15:20:32.628Z,2.00
2023-04-27T15:23:00.583Z,1.70
2023-04-27T15:25:28.498Z,2.10
2023-04-27T15:27:56.302Z,1.70
2023-04-27T15:30:24.181Z,1.60
2023-04-27T15:33:01.105Z,1.90
2023-04-27T15:35:28.906Z,1.80
2023-04-27T15:37:56.736Z,2.10
2023-04-27T15:40:27.197Z,2.10
2023-04-27T15:42:55.041Z,2.00
2023-04-27T15:45:22.866Z,2.00
2023-04-27T15:47:53.699Z,1.50
2023-04-27T15:50:21.438Z,1.80
2023-04-27T15:52:52.225Z,1.90
2023-04-27T15:55:20.039Z,1.50
2023-04-27T15:57:47.828Z,2.30
2023-04-27T16:00:17.017Z,1.60
2023-04-27T16:02:48.166Z,1.60
2023-04-27T16:05:17.009Z,1.40
2023-04-27T16:07:45.160Z,1.80
2023-04-27T16:10:13.419Z,1.80
2023-04-27T16:12:41.422Z,1.80
2023-04-27T16:15:11.822Z,1.70
2023-04-27T16:17:39.793Z,1.50
2023-04-27T16:20:08.013Z,1.70
2023-04-27T16:22:36.607Z,1.90
2023-04-27T16:25:06.691Z,1.50
2023-04-27T16:27:34.496Z,5.40
2023-04-27T16:30:02.287Z,3.20
2023-04-27T16:32:31.480Z,10.90
2023-04-27T16:35:00.825Z,10.20
2023-04-27T16:37:28.746Z,8.10
2023-04-27T16:39:59.796Z,2.40
2023-04-27T16:42:27.693Z,1.90
2023-04-27T16:44:55.760Z,1.90
2023-04-27T16:47:23.531Z,2.00
2023-04-27T16:49:51.446Z,1.90
2023-04-27T16:52:19.981Z,1.90
2023-04-27T16:54:47.972Z,2.80
2023-04-27T16:57:16.394Z,2.10
2023-04-27T16:59:44.333Z,2.10
2023-04-27T17:02:23.665Z,3.00
2023-04-27T17:04:54.148Z,1.80
2023-04-27T17:07:22.109Z,2.30
2023-04-27T17:09:50.081Z,2.10
2023-04-27T17:12:20.698Z,2.00
2023-04-27T17:14:48.634Z,3.30
2023-04-27T17:17:16.638Z,2.30
2023-04-27T17:19:44.501Z,2.00
2023-04-27T17:22:14.945Z,2.00
2023-04-27T17:24:42.953Z,2.70
2023-04-27T17:27:11.213Z,2.00
2023-04-27T17:29:38.963Z,1.70
2023-04-27T17:32:06.731Z,2.00
2023-04-27T17:34:34.585Z,2.20
2023-04-27T17:37:02.329Z,1.90
2023-04-27T17:39:30.071Z,2.70
2023-04-27T17:41:57.942Z,2.20
2023-04-27T17:44:26.018Z,2.60
2023-04-27T17:46:53.918Z,2.60
2023-04-27T17:49:29.675Z,2.50
2023-04-27T17:52:00.145Z,3.60
2023-04-27T17:54:29.919Z,3.50
2023-04-27T17:56:58.036Z,3.70
2023-04-27T17:59:26.256Z,3.80
2023-04-27T18:01:54.439Z,4.20
2023-04-27T18:04:22.460Z,4.00
2023-04-27T18:06:51.381Z,4.00
2023-04-27T18:09:19.170Z,3.90
2023-04-27T18:11:47.097Z,5.50
2023-04-27T18:14:17.565Z,5.30
2023-04-27T18:16:49.845Z,5.40
2023-04-27T18:19:20.231Z,5.50
2023-04-27T18:21:47.985Z,7.70
2023-04-27T18:24:15.910Z,6.30
2023-04-27T18:26:43.656Z,5.30
2023-04-27T18:29:11.570Z,6.00
2023-04-27T18:31:47.702Z,6.20
2023-04-27T18:34:16.141Z,5.80
2023-04-27T18:36:53.681Z,6.00
2023-04-27T18:39:22.172Z,6.20
2023-04-27T18:41:50.168Z,6.90
2023-04-27T18:44:18.086Z,6.10
2023-04-27T18:46:48.922Z,6.40
2023-04-27T18:49:17.005Z,8.50
2023-04-27T18:51:45.528Z,13.40
2023-04-27T18:54:14.912Z,11.40
2023-04-27T18:56:42.730Z,11.30
2023-04-27T18:59:10.487Z,11.70
2023-04-27T19:01:39.832Z,12.90
2023-04-27T19:04:07.926Z,12.30
2023-04-27T19:06:35.898Z,13.90
2023-04-27T19:09:03.797Z,14.50
2023-04-27T19:11:31.593Z,15.20
2023-04-27T19:13:59.442Z,16.90
2023-04-27T19:16:27.567Z,16.00
2023-04-27T19:18:55.469Z,15.50
2023-04-27T19:21:23.385Z,16.90
2023-04-27T19:23:51.274Z,14.30
2023-04-27T19:26:19.290Z,10.30
2023-04-27T19:28:48.024Z,9.00
2023-04-27T19:31:15.956Z,8.10
2023-04-27T19:33:47.350Z,8.80
2023-04-27T19:36:23.148Z,9.10
2023-04-27T19:38:52.228Z,9.30
2023-04-27T19:41:20.906Z,9.70
2023-04-27T19:43:57.616Z,10.20
2023-04-27T19:46:26.744Z,11.10
2023-04-27T19:48:54.579Z,10.40
2023-04-27T19:51:22.663Z,11.60
2023-04-27T19:53:50.750Z,9.70
2023-04-27T19:56:18.765Z,11.60
2023-04-27T19:58:46.703Z,12.40
2023-04-27T20:01:14.617Z,15.00
2023-04-27T20:04:15.531Z,17.20
2023-04-27T20:06:54.847Z,14.50
2023-04-27T20:09:22.715Z,15.30
2023-04-27T20:12:40.732Z,18.60
2023-04-27T20:15:12.827Z,19.30
2023-04-27T20:17:41.949Z,20.40
2023-04-27T20:20:13.373Z,23.40
2023-04-27T20:22:41.230Z,25.10
2023-04-27T20:25:09.257Z,24.00
2023-04-27T20:27:37.121Z,21.10
2023-04-27T20:30:05.158Z,16.20
2023-04-27T20:32:33.019Z,14.90
2023-04-27T20:35:02.760Z,14.20
2023-04-27T20:37:35.995Z,14.30
2023-04-27T20:40:13.444Z,14.00
2023-04-27T20:42:42.679Z,15.00
2023-04-27T20:45:11.642Z,13.70
2023-04-27T20:47:42.525Z,12.40
2023-04-27T20:50:12.914Z,13.70
2023-04-27T20:52:40.948Z,14.90
2023-04-27T20:55:08.933Z,13.90
2023-04-27T20:57:36.961Z,16.40
2023-04-27T21:00:05.484Z,15.30
2023-04-27T21:02:35.810Z,16.40
2023-04-27T21:05:03.998Z,16.00
2023-04-27T21:07:35.147Z,14.90
2023-04-27T21:10:06.260Z,15.60
2023-04-27T21:12:36.954Z,15.70
2023-04-27T21:15:04.903Z,15.80
2023-04-27T21:17:35.357Z,16.80
2023-04-27T21:20:10.070Z,16.90
2023-04-27T21:22:38.147Z,18.50
2023-04-27T21:25:06.536Z,18.60
2023-04-27T21:27:37.161Z,19.20
2023-04-27T21:30:05.441Z,30.30
2023-04-27T21:32:33.411Z,25.10
2023-04-27T21:35:01.794Z,19.70
2023-04-27T21:37:29.814Z,16.00
2023-04-27T21:40:00.883Z,17.70
2023-04-27T21:42:28.706Z,16.70
2023-04-27T21:44:56.992Z,16.10
2023-04-27T21:47:24.957Z,15.30
2023-04-27T21:49:52.895Z,14.10
2023-04-27T21:52:21.653Z,16.40
2023-04-27T21:54:49.631Z,17.00
2023-04-27T21:57:19.428Z,17.70
2023-04-27T21:59:47.900Z,17.10
2023-04-27T22:02:23.995Z,17.50
2023-04-27T22:04:52.321Z,16.60
2023-04-27T22:07:20.167Z,15.90
2023-04-27T22:09:47.950Z,16.60
2023-04-27T22:12:15.678Z,16.70
2023-04-27T22:14:43.432Z,17.50
2023-04-27T22:17:12.615Z,16.70
2023-04-27T22:19:41.063Z,14.90
2023-04-27T22:22:10.644Z,15.70
2023-04-27T22:24:38.655Z,15.30
2023-04-27T22:27:06.500Z,17.50
2023-04-27T22:29:34.589Z,16.80
2023-04-27T22:32:02.437Z,15.20
2023-04-27T22:34:31.294Z,16.40
2023-04-27T22:36:59.442Z,15.00
2023-04-27T22:39:27.353Z,18.50
2023-04-27T22:41:55.032Z,19.90
2023-04-27T22:44:22.840Z,18.40
2023-04-27T22:46:50.899Z,19.60
2023-04-27T22:49:18.683Z,16.90
2023-04-27T22:51:47.347Z,17.20
2023-04-27T22:54:18.297Z,17.90
2023-04-27T22:56:46.317Z,15.70
2023-04-27T22:59:14.138Z,18.50
2023-04-27T23:01:42.119Z,18.00
2023-04-27T23:04:09.978Z,16.30
2023-04-27T23:06:38.252Z,20.20
2023-04-27T23:09:06.150Z,18.70
2023-04-27T23:11:34.525Z,18.70
2023-04-27T23:14:05.166Z,31.50
2023-04-27T23:16:33.001Z,36.00
2023-04-27T23:19:00.768Z,43.00
2023-04-27T23:21:29.089Z,36.30
2023-04-27T23:23:56.840Z,33.00
2023-04-27T23:26:27.350Z,33.30
2023-04-27T23:28:55.117Z,32.70
2023-04-27T23:31:23.562Z,31.80
2023-04-27T23:33:51.293Z,35.20
2023-04-27T23:36:18.985Z,32.90
2023-04-27T23:38:46.859Z,32.10
2023-04-27T23:41:14.577Z,33.00
2023-04-27T23:43:43.477Z,33.20
2023-04-27T23:46:11.448Z,33.20
2023-04-27T23:48:39.176Z,32.70
2023-04-27T23:51:07.266Z,30.40
2023-04-27T23:53:35.082Z,33.40
2023-04-27T23:56:02.927Z,33.20
2023-04-27T23:58:31.017Z,34.30
